TFM - Tactical Decision Aid
ID: Runway Winds: CIG/VIS Threshold:

KIPT - Williamsport Rgnl, PA, US

Updated at: 1744 UTC 26 Oct 2021
Latest TAF at: 1634 UTC 26 Oct 2021

TAF Board

Time1654Z 26/18Z 26/19Z 26/20Z 26/21Z 26/22Z 26/23Z 27/00Z 27/01Z 27/02Z 27/03Z 27/04Z 27/05Z 27/06Z>>
Type OBS PRVL PRVL PRVL PRVL PRVL PRVL PRVL PRVL PRVL PRVL PRVL PRVL PRVL
VIS 6 >6 5 5 5 5 5 5 3 3 3 3 3 3
CIG 23 20 25 25 25 25 25 25 12 12 12 12 12 12
Cover OVC OVC OVC OVC OVC OVC OVC OVC OVC OVC OVC OVC OVC OVC
FltCat MVFR MVFR MVFR MVFR MVFR MVFR MVFR MVFR MVFR MVFR MVFR MVFR MVFR MVFR
WX -RA -RA -RA BR -RA BR -RA BR -RA BR -RA BR -RA BR -RA BR -RA BR -RA BR -RA BR -RA BR -RA BR
WDir 270 300 290 290 290 290 290 290 300 300 300 300 300 300
WSpd 14 12 12 12 12 12 12 12 12 12 12 12 12 12
WGst 19 22 24 24 24 24 24 24 22 22 22 22 22 22

TDA Impact Legend

  None Marginal Slight Moderate High
Visibility (sm) >5 3≤X≤5 2≤X<3 1≤X<2 <1
Ceiling (100 ft) >30 10≤X≤30 15≤X<10 4≤X<15 <4
Wind Speed (kt) <15 15≤X<25 25≤X<30 ≥30
Wind Gust (kt) <15 15≤X<25 25≤X<35 ≥35
Weather No Wx Reported VCTS -TS,-FZRA TS,FZRA +TS,+FZRA
TAF
KIPT 261634Z 2617/2712 30012G22KT P6SM -RA BKN020 OVC025
  FM261900 29012G24KT 5SM -RA BR SCT020 OVC025
  FM270100 30012G22KT 3SM -RA BR OVC012


METAR
KIPT 261654Z 27014G19KT 6SM -RA OVC023 11/08 A2951 RMK AO2 PK WND 29031/1633 SLP992 P0002 T01110078
KIPT 261554Z 30012G21KT 10SM -RA OVC025 13/08 A2951 RMK AO2 SLP993 P0000 T01330083
KIPT 261454Z 29005KT 10SM -RA BKN020 OVC025 14/13 A2950 RMK AO2 SLP987 P0000 60007 T01440128 58014

Radar Display
Forecast Discussion